Outlaw 2018

Age Group Results

April 07, 2018


Split Second Productions

5k

Female Overall Winners

Place Name City Bib No Age Overall Time Back Chip Time Gun Time Chip Diff Pace
1 Sha Thomas Doss TX 311 39 10   22:32.08 22:32.08 0:00.00 7:12/M
 

Female Masters Winners

Place Name City Bib No Age Overall Time Back Chip Time Gun Time Chip Diff Pace
1 Gabby Traxler San Antonio TX 352 47 26   25:19.01 25:19.01 0:00.00 8:05/M
 

Female 14 and Under

Place Name City Bib No Age Overall Time Back Chip Time Gun Time Chip Diff Pace
1 Lola Somera Houston TX 301 14 16   23:43.51 24:01.67 0:18.16 7:39/M
2 Annaleise Perez Fredericksburg TX 332 11 19 0:32.14 24:15.65 24:30.67 0:15.02 7:49/M
3 Elizabeth Leachman 243 10 70 5:29.63 29:13.14 29:28.78 0:15.64 9:25/M
4 Eleanor Burns Fredericksburg TX 340 11 83 6:17.06 30:00.57 30:27.60 0:27.03 9:41/M
5 Natalie Nall Austin TX 142 13 86 6:24.13 30:07.64 31:43.71 1:36.07 9:43/M
6 Madellyn Fiedler 210 10 123 8:47.54 32:31.05 34:25.09 1:54.04 10:29/M
7 Faith Hall 55 12 166 12:34.11 36:17.62 38:34.32 2:16.70 11:42/M
8 Krista Vela Austin TX 357 14 229 17:47.20 41:30.71 41:30.71 13:23/M
9 Grace Hall 56 7 246 19:47.52 43:31.03 45:47.63 2:16.60 14:02/M
 

Female 15 to 19

Place Name City Bib No Age Overall Time Back Chip Time Gun Time Chip Diff Pace
1 Haylee Truitt 315 15 32   26:01.73 26:36.36 0:34.63 8:24/M
2 Kenzie Uptergrove 100 17 237 16:07.70 42:09.43 43:59.75 1:50.32 13:36/M
3 Hanna Elskamp 202 15 271 22:01.56 48:03.29 48:52.25 0:48.96 15:30/M
 

Female 20 to 24

Place Name City Bib No Age Overall Time Back Chip Time Gun Time Chip Diff Pace
1 Danielle Snow Kerrville TX 299 23 46   27:04.36 28:34.56 1:30.20 8:44/M
2 Olgalidia Gutierrez Euless TX 356 24 54 0:53.26 27:57.62 28:33.92 0:36.30 9:01/M
3 Kelsey Hoelscher 118 22 110 4:22.87 31:27.23 33:12.44 1:45.21 10:09/M
4 Katelynn Bokoski Irving TX 175 24 151 8:08.15 35:12.51 36:07.78 0:55.27 11:21/M
5 Miranda Robles San Antonio TX 24 24 206 12:28.66 39:33.02 40:25.71 0:52.69 12:45/M
6 Camille Parcon Dallas TX 272 24 216 13:20.65 40:25.01 41:07.44 0:42.43 13:02/M
7 Kayla Anderson Rowlett TX 162 22 244 16:14.55 43:18.91 44:14.10 0:55.19 13:58/M
8 Olympia Cuellar San Antonio TX 350 22 317 31:35.06 58:39.42 59:39.85 1:00.43 18:55/M
 

Female 25 to 29

Place Name City Bib No Age Overall Time Back Chip Time Gun Time Chip Diff Pace
1 Alisha Schwertner Miles TX 296 27 40   26:39.63 27:12.82 0:33.19 8:36/M
2 Candice Groce 134 26 56 1:44.76 28:24.39 30:41.05 2:16.66 9:10/M
3 Sarah Crow San Antonio TX 194 26 58 1:48.32 28:27.95 29:35.23 1:07.28 9:11/M
4 Laura MacKan Fredericksburg TX 247 29 72 2:35.49 29:15.12 31:09.86 1:54.74 9:26/M
5 Lauren Pyka Fredericksburg TX 338 26 74 2:39.45 29:19.08 29:40.00 0:20.92 9:27/M
6 Sindel Kopp Harker Heights TX 147 26 85 3:22.46 30:02.09 30:19.79 0:17.70 9:41/M
7 Brittany Roller Shiner TX 128 25 89 3:35.51 30:15.14 32:17.54 2:02.40 9:45/M
8 Nadia Pelayo San Antonio TX 277 29 112 4:54.54 31:34.17 33:25.73 1:51.56 10:11/M
9 Jacqueline Barnett Kerrville TX 168 28 116 5:22.68 32:02.31 32:38.25 0:35.94 10:20/M
10 Jessica Schwingendorf Houston TX 858 25 124 5:53.60 32:33.23 33:20.79 0:47.56 10:30/M
11 Ashley Hernandez Austin TX 69 27 125 5:56.06 32:35.69 33:18.27 0:42.58 10:31/M
12 Katie White Dallas TX 324 29 176 10:39.47 37:19.10 38:16.45 0:57.35 12:02/M
13 Rachel Ormsby 268 28 180 10:45.44 37:25.07 38:16.82 0:51.75 12:04/M
14 Tracie Griffin Kerrville TX 218 27 182 10:53.14 37:32.77 37:47.11 0:14.34 12:06/M
15 Audry Lamb 119 27 185 11:05.97 37:45.60 38:42.63 0:57.03 12:11/M
16 Susan Barr Dallas TX 695 29 186 11:15.38 37:55.01 38:38.15 0:43.14 12:14/M
17 Evan Castaneda Deer Park TX 2 26 194 12:16.84 38:56.47 41:15.90 2:19.43 12:34/M
18 Anna Ellis Richardson TX 737 28 212 13:26.31 40:05.94 40:47.96 0:42.02 12:56/M
19 Matthew Leach 242 26 263 19:14.51 45:54.14 47:57.27 2:03.13 14:48/M
20 Halen George San Antonio TX 337 29 270 21:17.53 47:57.16 48:32.37 0:35.21 15:28/M
21 Candace Carreno Austin TX 70 27 294 24:17.13 50:56.76 51:39.60 0:42.84 16:26/M
 

Female 30 to 34

Place Name City Bib No Age Overall Time Back Chip Time Gun Time Chip Diff Pace
1 Melanie Ruiz San Antonio TX 289 32 29   25:36.67 25:59.11 0:22.44 8:15/M
2 Misti Hahn Spring Branch TX 41 32 77 3:48.86 29:25.53 30:08.78 0:43.25 9:29/M
3 Rachel Taylor Santa Fe TX 307 33 78 3:51.62 29:28.29 30:00.31 0:32.02 9:30/M
4 Sarah Dowell Tuscola TX 201 33 80 4:03.69 29:40.36 30:34.37 0:54.01 9:34/M
5 Jamie Laratta Fredericksburg TX 78 33 91 4:39.54 30:16.21 30:36.66 0:20.45 9:46/M
6 Lona Stahl Leander TX 110 30 104 5:30.69 31:07.36 31:29.12 0:21.76 10:02/M
7 Mindy Lay Blanco TX 240 33 109 5:47.78 31:24.45 33:13.79 1:49.34 10:08/M
8 Tara Stratton Dallas TX 864 32 117 6:25.92 32:02.59 32:45.93 0:43.34 10:20/M
9 Ashley Schumann 114 32 131 7:36.49 33:13.16 34:10.19 0:57.03 10:43/M
10 Rachel Hominick Kerrville TX 226 34 134 8:09.64 33:46.31 35:14.81 1:28.50 10:54/M
11 Kathleen Cosper Boerne TX 112 33 153 9:45.47 35:22.14 35:43.89 0:21.75 11:25/M
12 Megan Boatright 113 33 154 9:45.91 35:22.58 35:44.26 0:21.68 11:25/M
13 Amber Scott 138 30 158 10:11.53 35:48.20 38:05.34 2:17.14 11:33/M
14 Meghan Moriarty Houston TX 254 31 178 11:44.40 37:21.07 38:39.92 1:18.85 12:03/M
15 Lauren Kresta Grand Prairie TX 6 34 183 12:00.35 37:37.02 38:40.91 1:03.89 12:08/M
16 Kendra Orth San Antonio TX 15 34 193 13:17.35 38:54.02 40:21.39 1:27.37 12:33/M
17 Jackie Miller Augusta KS 251 34 222 15:23.63 41:00.30 42:04.42 1:04.12 13:14/M
18 Stephanie Powers San Antonio TX 348 33 233 16:13.37 41:50.04 43:53.78 2:03.74 13:30/M
19 Bridgette Fiedler Kerrville TX 209 34 238 16:36.74 42:13.41 44:07.78 1:54.37 13:37/M
20 Tasha Carnahan Temple TX 186 32 243 17:39.82 43:16.49 44:58.81 1:42.32 13:57/M
21 Sam Miller Willis TX 8 32 247 17:55.82 43:32.49 43:58.89 0:26.40 14:03/M
22 Candice Robinson Mineral Wells TX 284 32 275 22:47.83 48:24.50 50:07.27 1:42.77 15:37/M
23 Megan Grube 49 32 310 28:50.37 54:27.04 56:32.90 2:05.86 17:34/M
24 Emily Ball Fredericksburg TX 167 32 324 37:53.83 1:03:30.50 1:03:30.50 20:29/M
25 Rachel Lavergne 82 30 330 41:17.35 1:06:54.02 1:08:53.50 1:59.48 21:35/M
 

Female 35 to 39

Place Name City Bib No Age Overall Time Back Chip Time Gun Time Chip Diff Pace
1 Cara Gilbreath Kerrville TX 213 36 27   25:20.56 25:41.25 0:20.69 8:10/M
2 Ivalu Rose Kerrville TX 287 39 38 1:10.35 26:30.91 27:36.12 1:05.21 8:33/M
3 Gladys Garza San Antonio TX 64 35 44 1:38.95 26:59.51 29:18.02 2:18.51 8:42/M
4 Leyla Riebel Cypress TX 10 38 66 3:31.67 28:52.23 29:56.91 1:04.68 9:19/M
5 Kenna Calder Kerrville TX 132 37 130 7:50.00 33:10.56 33:25.18 0:14.62 10:42/M
6 Traci Uribe 38 37 144 9:13.96 34:34.52 36:07.44 1:32.92 11:09/M
7 Elizabeth Burton 712 37 145 9:21.04 34:41.60 35:52.25 1:10.65 11:11/M
8 Leslie Uresti San Antonio TX 316 38 152 10:00.83 35:21.39 36:36.01 1:14.62 11:24/M
9 Rita Nguyen 260 35 170 11:07.59 36:28.15 37:26.38 0:58.23 11:46/M
10 Alicia Keith Hewitt TX 127 35 207 14:16.17 39:36.73 41:23.17 1:46.44 12:46/M
11 Ramona Howell Katy TX 227 37 211 14:33.71 39:54.27 40:52.78 0:58.51 12:52/M
12 Christina Velez Beaumont TX 318 37 213 14:46.41 40:06.97 41:40.34 1:33.37 12:56/M
13 Janna Stotz Fredericksburg TX 303 37 220 15:32.82 40:53.38 42:24.01 1:30.63 13:11/M
14 Elizabeth Moy San Antonio TX 66 38 231 16:14.52 41:35.08 42:26.69 0:51.61 13:25/M
15 Fallon Benavides Dickinson TX 170 35 249 18:16.39 43:36.95 44:09.00 0:32.05 14:04/M
16 Stephanie Taylor League City TX 308 38 251 18:17.73 43:38.29 44:09.41 0:31.12 14:05/M
17 Amy Kallies Fredericksburg TX 156 39 257 19:40.76 45:01.32 46:01.89 1:00.57 14:31/M
18 Jamie Newman Friendswood TX 97 38 269 22:07.86 47:28.42 49:22.39 1:53.97 15:19/M
 

Female 40 to 44

Place Name City Bib No Age Overall Time Back Chip Time Gun Time Chip Diff Pace
1 Grace Rosanes Houston TX 285 40 51   27:20.25 27:32.25 0:12.00 8:49/M
2 Tara Schlunegger Kerrville TX 129 41 76 2:03.97 29:24.22 29:38.64 0:14.42 9:29/M
3 Jennifer Foraker San Antonio TX 211 40 95 3:15.31 30:35.56 32:37.31 2:01.75 9:52/M
4 Debra Oliver Holland TX 265 44 114 4:23.70 31:43.95 32:12.08 0:28.13 10:14/M
5 Lori Wilson Montgomery TX 328 44 120 4:48.54 32:08.79 36:12.33 4:03.54 10:22/M
6 Michelle Chancellor Kerrville TX 190 43 155 8:16.34 35:36.59 36:43.55 1:06.96 11:29/M
7 Dee Deatherage Valladare 58 43 167 9:02.15 36:22.40 38:39.36 2:16.96 11:44/M
8 Erin Teter 76 41 168 9:04.43 36:24.68 40:17.08 3:52.40 11:45/M
9 Keri Tkachuk 47 40 172 9:08.57 36:28.82 37:15.14 0:46.32 11:46/M
10 Brandy Murrell Bulverde TX 256 42 189 11:08.65 38:28.90 39:31.51 1:02.61 12:25/M
11 Vanessa Holt Wimberley TX 225 43 221 13:39.00 40:59.25 42:38.43 1:39.18 13:13/M
12 Patricia Mangold Blanco TX 249 43 248 16:16.68 43:36.93 45:25.96 1:49.03 14:04/M
13 Angela Volkin Sugar Land TX 319 41 250 16:17.44 43:37.69 44:08.92 0:31.23 14:04/M
14 Jodie Uptergrove Christoval TX 98 43 264 18:54.14 46:14.39 48:08.10 1:53.71 14:55/M
15 Kristel Elskamp 204 44 272 20:43.22 48:03.47 48:52.45 0:48.98 15:30/M
16 Darlene Gonzalez San Antonio TX 54 44 285 22:38.34 49:58.59 51:31.11 1:32.52 16:07/M
17 Lee Ann Brown Austin TX 1 43 292 23:28.43 50:48.68 52:53.51 2:04.83 16:23/M
18 Emily Paden 90 42 326 36:14.90 1:03:35.15 1:05:16.40 1:41.25 20:31/M
 

Female 45 to 49

Place Name City Bib No Age Overall Time Back Chip Time Gun Time Chip Diff Pace
1 Lori Henkener San Antonio TX 223 48 73   29:18.53 30:11.61 0:53.08 9:27/M
2 Lori Coward Boerne TX 21 49 81 0:24.07 29:42.60 30:46.89 1:04.29 9:35/M
3 Carrie Langerhans Fredericksburg TX 155 46 98 1:24.74 30:43.27 31:46.83 1:03.56 9:55/M
4 Belinda Ponce Mckinney TX 106 48 102 1:42.34 31:00.87 32:49.00 1:48.13 10:00/M
5 Michelle Gonzalez San Antonio TX 33 45 105 1:54.90 31:13.43 31:35.05 0:21.62 10:04/M
6 Pam Appleby San Antonio TX 28 46 111 2:09.94 31:28.47 33:12.39 1:43.92 10:09/M
7 Mellissa Federico Mckinney TX 506 45 118 2:47.31 32:05.84 33:55.11 1:49.27 10:21/M
8 Patricia Kierstead San Antonio TX 238 49 135 4:32.74 33:51.27 34:14.53 0:23.26 10:55/M
9 Renee Cejka Shiner TX 73 49 140 4:54.85 34:13.38 34:56.66 0:43.28 11:02/M
10 Veronica Miller San Antonio TX 68 47 160 6:33.47 35:52.00 36:34.48 0:42.48 11:34/M
11 Antoinette Brundige San Antonio TX 45 48 162 6:39.47 35:58.00 36:31.24 0:33.24 11:36/M
12 Martha Strickland Kerrville TX 131 45 196 9:38.61 38:57.14 39:11.28 0:14.14 12:34/M
13 Suzanna Sanchez Fredericksburg TX 85 45 201 9:55.88 39:14.41 40:44.76 1:30.35 12:39/M
14 Victoria Johnson Bedford TX 232 45 215 10:54.02 40:12.55 41:26.88 1:14.33 12:58/M
15 Shanna Burke Lumberton TX 108 46 240 13:29.72 42:48.25 44:19.42 1:31.17 13:48/M
16 Lori Hall San Antonio TX 57 47 252 14:20.56 43:39.09 45:55.79 2:16.70 14:05/M
17 Crystal Messersmith Mckinney TX 107 46 253 14:24.27 43:42.80 45:34.85 1:52.05 14:06/M
18 Martika Damico Plano TX 105 45 254 14:26.70 43:45.23 45:34.44 1:49.21 14:07/M
19 Brenda Payne Arlington TX 273 48 320 31:23.86 1:00:42.39 1:02:56.66 2:14.27 19:35/M
20 Constance Crow Forney TX 192 48 321 31:25.16 1:00:43.69 1:02:56.65 2:12.96 19:35/M
21 Linda Payne Arlington TX 275 48 332 38:45.62 1:08:04.15 1:10:18.73 2:14.58 21:57/M
 

Female 50 to 54

Place Name City Bib No Age Overall Time Back Chip Time Gun Time Chip Diff Pace
1 Whitney Greene Canyon Lake TX 217 52 28   25:25.12 25:40.58 0:15.46 8:12/M
2 Jennifer Hilliard Corpus Christi TX 349 52 37 1:03.41 26:28.53 27:51.89 1:23.36 8:32/M
3 Christi Wright Comfort TX 329 50 48 1:42.25 27:07.37 29:42.64 2:35.27 8:45/M
4 Nora Rodriguez 158 54 50 1:55.02 27:20.14 28:06.40 0:46.26 8:49/M
5 Dianna Groce Pasadena TX 135 53 59 3:05.48 28:30.60 30:47.14 2:16.54 9:12/M
6 Henrietta Clark Fredericksburg TX 93 52 63 3:13.06 28:38.18 29:23.12 0:44.94 9:14/M
7 Tracy Engberg Austin TX 206 50 67 3:40.13 29:05.25 29:50.58 0:45.33 9:23/M
8 Monica Johnson Charlottesville VA 343 51 88 4:48.12 30:13.24 30:43.26 0:30.02 9:45/M
9 Melissa Hehmann Montrose CO 344 54 90 4:50.28 30:15.40 30:43.31 0:27.91 9:45/M
10 Karen Nanny Valera TX 258 52 93 5:03.88 30:29.00 31:04.35 0:35.35 9:50/M
11 Juliana Carlo San Antonio TX 18 54 115 6:36.49 32:01.61 33:43.57 1:41.96 10:20/M
12 Raynell Wynn San Antonio TX 26 54 126 7:15.94 32:41.06 33:17.51 0:36.45 10:33/M
13 Linda Leach 241 52 128 7:32.25 32:57.37 35:00.24 2:02.87 10:38/M
14 Melanie Kaspar Dallas TX 236 51 136 8:37.38 34:02.50 34:59.11 0:56.61 10:59/M
15 Laurie Williams 326 51 138 8:46.14 34:11.26 35:03.47 0:52.21 11:02/M
16 Janine Osterberg New Braunfels TX 269 51 141 8:56.45 34:21.57 35:01.35 0:39.78 11:05/M
17 Margaret Leachman San Antonio TX 244 52 159 10:26.27 35:51.39 36:07.54 0:16.15 11:34/M
18 Karen Hoelscher Elm Mott TX 116 50 169 11:00.72 36:25.84 38:10.70 1:44.86 11:45/M
19 Amy Bibler Lytle TX 31 51 173 11:06.33 36:31.45 37:47.60 1:16.15 11:47/M
20 Kristi Hamner Plano TX 219 52 190 13:08.02 38:33.14 38:59.67 0:26.53 12:26/M
21 Laurie Tafoya San Antonio TX 30 53 205 14:05.37 39:30.49 40:59.26 1:28.77 12:45/M
22 Tracey Abel 161 53 218 15:26.57 40:51.69 41:55.65 1:03.96 13:11/M
23 Linda Carey 19 51 224 15:51.89 41:17.01 42:59.19 1:42.18 13:19/M
24 Lucinda Garcia Elmendorf TX 603 50 225 15:53.62 41:18.74 42:09.72 0:50.98 13:19/M
25 Lissete Cantu San Antonio TX 716 54 255 18:32.88 43:58.00 45:25.83 1:27.83 14:11/M
26 Janice Roessler Elm Mott TX 124 50 265 21:34.55 46:59.67 48:45.34 1:45.67 15:09/M
27 Maria Hernandez San Antonio TX 16 53 286 24:37.80 50:02.92 51:47.03 1:44.11 16:08/M
28 Sophie Smith Pearland TX 149 52 307 28:24.68 53:49.80 55:37.45 1:47.65 17:22/M
29 Laurie Truax 48 53 309 29:01.81 54:26.93 56:33.15 2:06.22 17:34/M
30 Dayle Lattie Rockwall TX 89 54 314 32:22.64 57:47.76 59:33.12 1:45.36 18:38/M
31 Glenda Rutherford Winnie TX 80 53 331 41:31.36 1:06:56.48 1:08:55.79 1:59.31 21:35/M
 

Female 55 to 59

Place Name City Bib No Age Overall Time Back Chip Time Gun Time Chip Diff Pace
1 Rita Stidham San Antonio TX 25 56 68   29:05.61 29:42.05 0:36.44 9:23/M
2 Anita Duran San Antonio TX 71 56 107 2:17.36 31:22.97 32:39.49 1:16.52 10:07/M
3 Ivy Fauntleroy Franklinton LA 208 55 122 3:23.95 32:29.56 33:52.66 1:23.10 10:29/M
4 Maggie Snow Kerrville TX 300 58 163 6:55.23 36:00.84 37:31.36 1:30.52 11:37/M
5 Diana Gonzales San Antonio TX 23 56 164 6:57.04 36:02.65 36:31.97 0:29.32 11:37/M
6 Marion Mulligan-Tyler San Antonio TX 59 57 179 8:16.64 37:22.25 38:34.03 1:11.78 12:03/M
7 Laurie MacKan Beaumont TX 248 57 184 8:32.17 37:37.78 39:32.79 1:55.01 12:08/M
8 Gretchen Arnold Corpus Christi TX 164 59 192 9:47.52 38:53.13 39:47.74 0:54.61 12:33/M
9 Nanci Holtsford Lipan TX 120 57 199 10:08.28 39:13.89 40:42.30 1:28.41 12:39/M
10 Melissa Rice Lipan TX 121 55 200 10:08.45 39:14.06 40:42.49 1:28.43 12:39/M
11 Kathleen Blakely Boerne TX 172 58 202 10:11.98 39:17.59 39:57.87 0:40.28 12:40/M
12 Lori Smith Canyon Lake TX 36 55 203 10:15.45 39:21.06 40:43.21 1:22.15 12:42/M
13 Judith Tucker San Antonio TX 65 55 230 12:28.01 41:33.62 42:25.95 0:52.33 13:24/M
14 Vanessa Lucas Austin TX 246 57 235 12:50.35 41:55.96 43:23.45 1:27.49 13:31/M
15 Lulu Petty Brady TX 280 56 266 18:01.42 47:07.03 48:56.17 1:49.14 15:12/M
16 Mary Bowling Driftwood TX 176 58 277 20:11.53 49:17.14 50:50.91 1:33.77 15:54/M
17 Beth Taylor Johnson City TX 305 57 291 21:42.86 50:48.47 52:53.65 2:05.18 16:23/M
18 Terri White Dripping Springs TX 12 58 293 21:43.21 50:48.82 52:53.82 2:05.00 16:23/M
19 Kathryn Schmidt 295 56 296 22:16.72 51:22.33 53:11.73 1:49.40 16:34/M
20 Celia Jimenez 230 57 297 22:38.88 51:44.49 52:38.55 0:54.06 16:41/M
21 Pam Hughes 228 56 303 24:25.32 53:30.93 55:38.97 2:08.04 17:15/M
22 Stacey Carlson Omaha NE 183 57 304 24:25.33 53:30.94 55:40.11 2:09.17 17:15/M
23 Julie Snyder 51 56 316 29:17.74 58:23.35 59:45.78 1:22.43 18:50/M
 

Female 60 to 64

Place Name City Bib No Age Overall Time Back Chip Time Gun Time Chip Diff Pace
1 Catherine Carmany Corpus Christi TX 184 60 133   33:40.82 34:34.10 0:53.28 10:52/M
2 Roycee Kerr Wimberley TX 237 61 174 3:00.72 36:41.54 37:46.66 1:05.12 11:50/M
3 Kim Blake Hurst TX 698 63 187 4:44.50 38:25.32 40:15.79 1:50.47 12:24/M
4 Mary Ann Beach 61 61 232 8:00.82 41:41.64 42:41.42 0:59.78 13:27/M
5 Pamela Clack Kerrville TX 79 64 234 8:10.20 41:51.02 43:39.19 1:48.17 13:30/M
6 Debbi Zimmerle San Antonio TX 29 60 239 9:01.04 42:41.86 44:26.60 1:44.74 13:46/M
7 Nancy Quayle 133 64 242 9:27.06 43:07.88 44:12.46 1:04.58 13:55/M
8 Jean Schaefer Lake Jackson TX 292 62 273 14:24.59 48:05.41 49:14.44 1:09.03 15:31/M
9 Catherine Schulenberg 84 62 279 15:43.08 49:23.90 51:06.89 1:42.99 15:56/M
10 Sherilyn Weis 322 63 283 16:13.36 49:54.18 51:09.30 1:15.12 16:06/M
11 Diana Trevino Helotes TX 313 61 290 17:06.04 50:46.86 51:52.86 1:06.00 16:23/M
12 Teresa Todd College Station TX 148 60 312 22:33.21 56:14.03 58:12.47 1:58.44 18:08/M
13 Lois Credit 191 64 322 28:30.44 1:02:11.26 1:04:23.95 2:12.69 20:04/M
 

Female 65 to 69

Place Name City Bib No Age Overall Time Back Chip Time Gun Time Chip Diff Pace
1 Linda Nevels Fredericksburg TX 259 69 146   34:42.17 36:04.10 1:21.93 11:12/M
2 Nancy Cantwell Harper TX 181 67 256 9:26.25 44:08.42 44:57.81 0:49.39 14:14/M
3 Jeanne Ellis Colorado City TX 96 66 287 15:28.38 50:10.55 52:00.83 1:50.28 16:11/M
4 Charlotte Taylor 144 69 302 18:44.96 53:27.13 55:06.05 1:38.92 17:15/M
5 Carmen Long 139 69 305 18:51.10 53:33.27 55:30.75 1:57.48 17:16/M
 

Female 70 and Over

Place Name City Bib No Age Overall Time Back Chip Time Gun Time Chip Diff Pace
1 Leona Williams Kerrville TX 327 71 198   39:11.73 39:59.42 0:47.69 12:38/M
2 Gracie Funk Boerne TX 22 71 214 0:55.79 40:07.52 40:46.94 0:39.42 12:56/M
3 Ellen Owen 34 73 284 10:42.56 49:54.29 51:33.47 1:39.18 16:06/M
4 Sharon Jenschke Kerrville TX 75 71 295 12:06.61 51:18.34 52:07.69 0:49.35 16:33/M
5 Josiepha Caughlin Fredericksburg TX 146 70 301 14:13.31 53:25.04 55:06.20 1:41.16 17:14/M
6 Arlene Brateris Sunnyvale TX 88 70 315 18:36.19 57:47.92 59:33.80 1:45.88 18:38/M
7 Maureen O'Brien Dallas TX 86 70 325 24:20.39 1:03:32.12 1:05:16.36 1:44.24 20:30/M
8 Linda Smith Dallas TX 91 70 327 24:25.79 1:03:37.52 1:05:19.79 1:42.27 20:31/M
9 Diane Anderson Dallas TX 87 70 328 24:25.88 1:03:37.61 1:05:23.23 1:45.62 20:31/M
 

Male Overall Winners

Place Name City Bib No Age Overall Time Back Chip Time Gun Time Chip Diff Pace
1 Marx Munoz San Antonio TX 351 34 1   18:07.63 18:07.63 0:00.00 5:48/M
 

Male Masters Winners

Place Name City Bib No Age Overall Time Back Chip Time Gun Time Chip Diff Pace
1 James Neiner San Antonio TX 335 44 2   18:17.52 18:17.52 0:00.00 5:51/M
 

Male 14 and Under

Place Name City Bib No Age Overall Time Back Chip Time Gun Time Chip Diff Pace
1 Connor Ochoa Fort Worth TX 264 14 7   21:09.92 21:19.70 0:09.78 6:49/M
2 Izzy Elskamp Sanford MANITOBA 203 13 31 4:38.83 25:48.75 26:35.45 0:46.70 8:19/M
3 Grant Coward 20 13 36 5:16.66 26:26.58 27:30.97 1:04.39 8:32/M
4 Kolsen Uptergrove 102 12 147 13:39.99 34:49.91 35:59.73 1:09.82 11:14/M
5 Jacob Moy 67 8 227 20:14.13 41:24.05 42:14.76 0:50.71 13:21/M
6 Landon Newman 99 7 268 26:02.50 47:12.42 49:05.68 1:53.26 15:14/M
7 Wyatt Newman 103 9 298 30:35.51 51:45.43 53:38.54 1:53.11 16:42/M
8 Rhett Newman Friendswood TX 101 14 299 30:35.56 51:45.48 53:39.25 1:53.77 16:42/M
 

Male 15 to 19

Place Name City Bib No Age Overall Time Back Chip Time Gun Time Chip Diff Pace
1 Robert Delmark 197 15 3   18:59.70 19:09.52 0:09.82 6:07/M
2 Justin Teitge Bulverde TX 310 16 15 4:18.99 23:18.69 23:38.38 0:19.69 7:31/M
3 Gavin Mudd Fredericksburg TX 345 15 61 9:35.00 28:34.70 28:54.17 0:19.47 9:13/M
4 Charlie Johnson Charlottesville VA 342 16 99 11:49.24 30:48.94 30:59.92 0:10.98 9:56/M
 

Male 20 to 24

Place Name City Bib No Age Overall Time Back Chip Time Gun Time Chip Diff Pace
1 Machado Joaquin Dallas TX 355 23 94   30:35.31 31:12.35 0:37.04 9:52/M
2 Everth Perez San Antonio TX 278 23 165 5:37.10 36:12.41 37:12.42 1:00.01 11:41/M
 

Male 25 to 29

Place Name City Bib No Age Overall Time Back Chip Time Gun Time Chip Diff Pace
1 Clark Pederson Austin TX 104 27 4   19:14.31 19:23.45 0:09.14 6:12/M
2 Dereck Wright 330 26 14 4:04.20 23:18.51 25:54.75 2:36.24 7:31/M
3 Jack Roback 849 25 39 7:18.78 26:33.09 27:20.40 0:47.31 8:34/M
4 Michael Klepac 117 29 101 11:37.76 30:52.07 32:04.16 1:12.09 9:57/M
5 Garrison Blue Mineral Wells TX 173 28 276 29:10.29 48:24.60 50:07.71 1:43.11 15:37/M
 

Male 30 to 34

Place Name City Bib No Age Overall Time Back Chip Time Gun Time Chip Diff Pace
1 John Martinez San Antonio TX 353 32 9   22:08.16 22:18.68 0:10.52 7:08/M
2 Matthew Moriarty 253 31 17 1:42.60 23:50.76 25:09.62 1:18.86 7:41/M
3 Isaac Perez Fredericksburg TX 333 34 20 2:07.52 24:15.68 24:30.79 0:15.11 7:49/M
4 Jeremiah Bowling Houston TX 702 31 22 2:48.65 24:56.81 25:11.30 0:14.49 8:03/M
5 Thomas Ham Katy TX 5 33 34 4:06.15 26:14.31 27:20.50 1:06.19 8:28/M
6 Daniel Valenzuela San Antonio TX 63 34 45 4:51.72 26:59.88 29:17.72 2:17.84 8:42/M
7 Harsha Bathula San Antonio TX 169 30 53 5:39.14 27:47.30 34:21.32 6:34.02 8:58/M
8 Ryan Schumann Stonewall TX 115 32 55 6:03.74 28:11.90 29:19.75 1:07.85 9:05/M
9 Jon-Ross Crow San Antonio TX 193 31 57 6:19.03 28:27.19 29:34.19 1:07.00 9:11/M
10 Robert Desanto San Antonio TX 199 34 75 7:11.71 29:19.87 31:20.05 2:00.18 9:27/M
11 Mark Ripley 141 30 132 11:26.51 33:34.67 35:50.22 2:15.55 10:50/M
12 Kevin Jordan Kerrville TX 235 30 137 12:01.60 34:09.76 34:45.76 0:36.00 11:01/M
13 Robert Reda Houston TX 282 32 149 12:50.51 34:58.67 38:06.13 3:07.46 11:17/M
14 Andrew White Dallas TX 323 33 177 15:12.11 37:20.27 38:15.33 0:55.06 12:03/M
15 Michael Castaneda 3 30 195 16:48.94 38:57.10 41:17.24 2:20.14 12:34/M
16 Chris Scott 140 34 259 23:04.83 45:12.99 47:30.40 2:17.41 14:35/M
17 John Grube 50 34 308 32:17.60 54:25.76 56:32.73 2:06.97 17:33/M
18 Benjamin Ball 166 32 323 41:22.33 1:03:30.49 1:03:30.49 20:29/M
19 Kyle Lavergne Lumberton TX 81 31 329 44:36.86 1:06:45.02 1:08:43.51 1:58.49 21:32/M
 

Male 35 to 39

Place Name City Bib No Age Overall Time Back Chip Time Gun Time Chip Diff Pace
1 Jacob Ormsby Little Elm TX 267 36 11   22:36.75 22:49.37 0:12.62 7:17/M
2 Chris Locke San Antonio TX 17 39 12 0:35.14 23:11.89 23:22.44 0:10.55 7:29/M
3 Jason Gilbreath 214 37 13 0:39.12 23:15.87 24:50.38 1:34.51 7:30/M
4 Narbeh Babaian San Antonio TX 552 37 30 3:01.47 25:38.22 26:00.29 0:22.07 8:16/M
5 Brian Styck San Antonio TX 304 36 49 4:35.71 27:12.46 28:31.47 1:19.01 8:46/M
6 Shad Kresta 7 39 142 11:52.14 34:28.89 35:32.19 1:03.30 11:07/M
7 Thai Nguyen 261 36 217 18:03.94 40:40.69 40:52.88 0:12.19 13:07/M
8 Michael Apolinar 163 39 228 18:50.70 41:27.45 42:15.30 0:47.85 13:22/M
9 Roland Carnahan Temple TX 185 37 245 20:53.71 43:30.46 45:16.65 1:46.19 14:02/M
 

Male 40 to 44

Place Name City Bib No Age Overall Time Back Chip Time Gun Time Chip Diff Pace
1 Jason Hayes Owens Cross Roads AL 62 44 24   25:09.04 26:29.04 1:20.00 8:07/M
2 Steven Teter Round Rock TX 77 40 41 1:31.39 26:40.43 30:32.61 3:52.18 8:36/M
3 Randy Rose Kerrville TX 288 41 43 1:48.32 26:57.36 28:02.58 1:05.22 8:42/M
4 Jon Modrow Bulverde TX 252 40 92 5:18.25 30:27.29 30:54.65 0:27.36 9:49/M
5 Les Branson 123 40 96 5:31.02 30:40.06 32:09.42 1:29.36 9:54/M
6 Justin Owen West Jordan UT 35 41 100 5:41.35 30:50.39 32:15.21 1:24.82 9:57/M
7 Gardner Peavy San Antonio TX 276 42 127 7:46.03 32:55.07 34:12.62 1:17.55 10:37/M
8 Jon Chancellor 189 42 156 10:27.68 35:36.72 36:43.41 1:06.69 11:29/M
9 Jason Fulton Conroe TX 212 43 157 10:30.47 35:39.51 36:40.64 1:01.13 11:30/M
10 Mark Rosanes 286 40 171 11:19.27 36:28.31 37:26.22 0:57.91 11:46/M
11 Joshua Teitge 309 44 188 13:19.27 38:28.31 39:31.14 1:02.83 12:25/M
12 Joseph Dixon Hewitt TX 160 42 306 28:25.77 53:34.81 54:24.80 0:49.99 17:17/M
13 Jason Payne Dallas TX 274 40 313 31:55.62 57:04.66 59:14.71 2:10.05 18:25/M
 

Male 45 to 49

Place Name City Bib No Age Overall Time Back Chip Time Gun Time Chip Diff Pace
1 Caesar Cardenas San Antonio TX 182 45 8   21:25.58 21:37.52 0:11.94 6:55/M
2 Jayme Johnson 231 49 35 4:50.72 26:16.30 26:57.55 0:41.25 8:28/M
3 Trey Delmark Spicewood TX 198 45 64 7:22.10 28:47.68 29:08.03 0:20.35 9:17/M
4 James Fernett Del Rio TX 334 47 65 7:24.29 28:49.87 29:13.01 0:23.14 9:18/M
5 Leonel Enriquez Lamesa TX 207 47 79 8:08.79 29:34.37 31:43.60 2:09.23 9:32/M
6 Jason Weldon Friendswood TX 11 45 119 10:40.32 32:05.90 34:15.14 2:09.24 10:21/M
7 Dwin Nanny Valera TX 257 49 241 21:30.21 42:55.79 45:03.00 2:07.21 13:51/M
8 Joann Gilbert Castroville TX 46 47 262 24:13.23 45:38.81 46:09.26 0:30.45 14:43/M
9 Chad Roberts Denver CO 341 48 274 26:46.99 48:12.57 48:43.59 0:31.02 15:33/M
10 Russell Dominguez Taylor TX 200 45 280 28:02.18 49:27.76 52:49.55 3:21.79 15:57/M
11 Eric Engberg Austin TX 205 47 288 28:55.48 50:21.06 51:08.16 0:47.10 16:15/M
12 Jose Bernal 83 48 319 38:25.08 59:50.66 1:00:16.47 0:25.81 19:18/M
 

Male 50 to 54

Place Name City Bib No Age Overall Time Back Chip Time Gun Time Chip Diff Pace
1 Ariel Galvan San Antonio TX 347 52 5   20:28.76 20:38.25 0:09.49 6:36/M
2 Mike Michener Eagle River AK 336 51 6 0:09.93 20:38.69 20:49.10 0:10.41 6:39/M
3 Paul Ramos San Antonio TX 281 50 25 4:48.16 25:16.92 25:29.00 0:12.08 8:09/M
4 James Montalbo Schertz TX 43 53 42 6:26.25 26:55.01 27:35.07 0:40.06 8:41/M
5 Phil Hamner Plano TX 220 54 47 6:38.43 27:07.19 27:31.14 0:23.95 8:45/M
6 Chris Boeker Houston TX 339 52 84 9:32.73 30:01.49 30:32.30 0:30.81 9:41/M
7 Mark Cook 126 51 97 10:11.86 30:40.62 32:09.21 1:28.59 9:54/M
8 Pat Roller Shiner TX 130 52 106 10:48.22 31:16.98 33:57.76 2:40.78 10:05/M
9 Mark Roessler 125 52 113 11:07.04 31:35.80 33:20.12 1:44.32 10:11/M
10 Price Chambers Brackettville TX 188 54 129 12:31.58 33:00.34 33:34.30 0:33.96 10:39/M
11 Kenneth Cejka 72 50 139 13:44.14 34:12.90 34:56.78 0:43.88 11:02/M
12 Allen Reininger San Antonio TX 354 54 148 14:25.30 34:54.06 37:56.20 3:02.14 11:15/M
13 Jeffrey Williams Boerne TX 325 51 175 16:17.25 36:46.01 37:37.83 0:51.82 11:52/M
14 Billy Garcia Elmendorf TX 602 50 226 20:50.40 41:19.16 42:09.93 0:50.77 13:20/M
15 John Shelton San Antonio TX 298 53 258 24:34.31 45:03.07 47:05.94 2:02.87 14:32/M
16 James Petty Brady TX 279 53 267 26:38.62 47:07.38 48:56.52 1:49.14 15:12/M
17 Ralph Sarmiento San Antonio TX 60 52 278 28:51.71 49:20.47 49:20.47 15:55/M
18 Daniel Weis Boerne TX 321 50 282 29:24.76 49:53.52 51:09.49 1:15.97 16:05/M
19 Scott Caughlin Marble Falls TX 145 50 300 32:55.79 53:24.55 55:06.46 1:41.91 17:14/M
 

Male 55 to 59

Place Name City Bib No Age Overall Time Back Chip Time Gun Time Chip Diff Pace
1 Barry Lucas Austin TX 245 59 18   24:09.42 24:36.27 0:26.85 7:47/M
2 Chris Kobos Plano TX 152 59 21 0:39.77 24:49.19 25:03.11 0:13.92 8:00/M
3 Rex Field San Antonio TX 346 59 23 0:58.80 25:08.22 25:42.92 0:34.70 8:06/M
4 Mike Walker Houston TX 320 57 33 1:59.90 26:09.32 26:41.98 0:32.66 8:26/M
5 Christopher McGinty Corpus Christi TX 159 59 62 4:28.35 28:37.77 29:25.84 0:48.07 9:14/M
6 Larry Boghs Fair Oaks Ranch TX 551 59 69 5:02.95 29:12.37 29:33.42 0:21.05 9:25/M
7 William Oliver 266 57 103 6:53.28 31:02.70 31:32.13 0:29.43 10:01/M
8 Alfred Jimenez San Antonio TX 229 58 161 11:47.51 35:56.93 37:05.00 1:08.07 11:35/M
9 Ron Bowling 177 58 181 13:19.23 37:28.65 39:02.48 1:33.83 12:05/M
10 Douglas Cochran 157 57 191 14:26.53 38:35.95 40:12.16 1:36.21 12:27/M
11 Ricky Kowalski 239 56 204 15:12.99 39:22.41 41:01.67 1:39.26 12:42/M
12 James Budroe 136 59 260 21:03.81 45:13.23 47:30.32 2:17.09 14:35/M
 

Male 60 to 64

Place Name City Bib No Age Overall Time Back Chip Time Gun Time Chip Diff Pace
1 Stephen Schaefer 293 62 52   27:30.43 28:21.73 0:51.30 8:52/M
2 Jerry Gonzalez 32 62 71 1:42.85 29:13.28 32:09.49 2:56.21 9:25/M
3 Dick Duncan Corpus Christi TX 94 64 82 2:14.83 29:45.26 30:34.40 0:49.14 9:36/M
4 Bobby Sralla Floresville TX 302 63 87 2:37.62 30:08.05 31:33.36 1:25.31 9:43/M
5 Greg Snyder Bulverde TX 52 60 150 7:32.07 35:02.50 35:02.50 11:18/M
6 Pedro Cantu 717 60 208 12:11.61 39:42.04 41:09.85 1:27.81 12:48/M
7 Lyle Singleton 37 61 209 12:14.62 39:45.05 41:11.11 1:26.06 12:49/M
8 Kelly Postert Pipe Creek TX 53 62 219 13:21.47 40:51.90 42:12.99 1:21.09 13:11/M
9 Robert Trevino Helotes TX 314 61 281 21:58.00 49:28.43 51:35.02 2:06.59 15:57/M
10 James Schmidt Boerne TX 294 63 311 27:14.04 54:44.47 54:44.47 17:39/M
11 Rick Healey Rockport TX 770 61 318 32:13.19 59:43.62 1:00:51.09 1:07.47 19:16/M
 

Male 65 to 69

Place Name City Bib No Age Overall Time Back Chip Time Gun Time Chip Diff Pace
1 Pat Dubois San Antonio TX 39 66 143   34:34.49 36:07.47 1:32.98 11:09/M
2 Ray Ellis Colorado City TX 95 68 197 4:34.66 39:09.15 40:40.68 1:31.53 12:38/M
3 Gerald Zumm Bandera TX 331 68 236 7:28.34 42:02.83 42:41.51 0:38.68 13:34/M
4 Roy Gissendanner San Antonio TX 215 66 261 10:56.69 45:31.18 46:25.87 0:54.69 14:41/M
5 Mike Green Blanco TX 216 66 289 15:49.96 50:24.45 51:09.55 0:45.10 16:15/M
 

Male 70 and Over

Place Name City Bib No Age Overall Time Back Chip Time Gun Time Chip Diff Pace
1 Bill Richardson Arlington TX 283 74 60   28:33.36 28:56.88 0:23.52 9:13/M
2 George D'Hemecourt Richardson TX 4 70 108 2:50.47 31:23.83 31:38.89 0:15.06 10:07/M
3 Mike Lozano Arlington TX 92 71 121 3:49.32 32:22.68 32:46.85 0:24.17 10:26/M
4 Jerry A. Henkener Canyon Lake TX 222 79 210 11:19.34 39:52.70 40:46.40 0:53.70 12:52/M
5 Paul Riggle San Antonio TX 13 72 223 12:32.86 41:06.22 42:31.14 1:24.92 13:15/M